Time;durP1;ratioP1;P1;durP2;ratioP2;P2;SDS_P1;SDS_P2;PMS_P1;PMS_P2;Temp;Humidity;BMP_temperature;BMP_pressure;BME280_temperature;BME280_humidity;BME280_pressure;Samples;Min_cycle;Max_cycle;Signal;HPM_P1;HPM_P2
2021/12/15 00:00:57;;;;;;;96.85;38.78;;;;;;;9.10;99.46;102780.72;5053283;28;20025;-44
2021/12/15 00:03:22;;;;;;;89.13;37.75;;;;;;;9.10;99.39;102785.25;5055306;28;20059;-45
2021/12/15 00:05:49;;;;;;;100.15;40.53;;;;;;;9.08;99.45;102785.34;5055311;28;20396;-44
2021/12/15 00:08:15;;;;;;;97.27;39.70;;;;;;;9.07;99.12;102780.13;5053559;28;20029;-44
2021/12/15 00:10:42;;;;;;;99.65;40.92;;;;;;;9.08;99.36;102781.81;5050633;28;20036;-46
2021/12/15 00:13:08;;;;;;;97.68;39.38;;;;;;;9.10;99.39;102783.41;5055448;28;20484;-43
2021/12/15 00:15:33;;;;;;;96.10;37.78;;;;;;;9.12;99.02;102775.22;5055197;28;20061;-44
2021/12/15 00:17:59;;;;;;;97.10;38.42;;;;;;;9.07;98.94;102790.88;5038228;28;20065;-44
2021/12/15 00:20:25;;;;;;;92.47;36.00;;;;;;;9.06;98.84;102783.78;5043276;28;20071;-44
2021/12/15 00:22:52;;;;;;;91.75;37.28;;;;;;;9.07;99.01;102786.34;5054050;28;20409;-44
2021/12/15 00:25:19;;;;;;;91.45;37.30;;;;;;;9.06;99.23;102779.28;5055198;28;20040;-45
2021/12/15 00:27:45;;;;;;;89.80;35.97;;;;;;;9.08;98.99;102781.81;5050104;28;20426;-43
2021/12/15 00:30:11;;;;;;;87.18;35.97;;;;;;;9.07;98.80;102780.13;5054947;28;20029;-44
2021/12/15 00:32:36;;;;;;;86.95;35.97;;;;;;;9.07;98.82;102772.06;5054316;28;20556;-44
2021/12/15 00:35:02;;;;;;;83.32;34.47;;;;;;;9.06;98.78;102775.72;5033146;28;20124;-44
2021/12/15 00:37:27;;;;;;;83.25;34.33;;;;;;;9.08;98.87;102774.59;5034647;28;20378;-44
2021/12/15 00:39:53;;;;;;;82.65;34.97;;;;;;;9.11;98.57;102770.81;5034728;28;20033;-45
2021/12/15 00:42:18;;;;;;;85.38;36.03;;;;;;;9.11;98.83;102770.81;5045504;28;20081;-44
2021/12/15 00:44:45;;;;;;;88.03;35.10;;;;;;;9.14;98.65;102775.97;5054539;28;20116;-44
2021/12/15 00:47:11;;;;;;;89.50;35.28;;;;;;;9.11;98.08;102777.06;5053729;28;20087;-44
2021/12/15 00:49:37;;;;;;;88.75;35.58;;;;;;;9.12;98.50;102777.91;5053231;28;20045;-45
2021/12/15 00:52:03;;;;;;;87.35;35.05;;;;;;;9.14;98.87;102781.34;5054323;28;20112;-46
2021/12/15 00:54:29;;;;;;;88.55;34.80;;;;;;;9.12;98.50;102778.75;5053045;28;20074;-44
2021/12/15 00:56:55;;;;;;;84.85;33.95;;;;;;;9.12;98.47;102789.50;5054412;28;20029;-45
2021/12/15 00:59:21;;;;;;;91.55;34.40;;;;;;;9.13;98.50;102779.63;5038043;28;20370;-45
2021/12/15 01:01:47;;;;;;;84.88;34.95;;;;;;;9.14;98.53;102781.34;5034313;28;20036;-45
2021/12/15 01:04:14;;;;;;;86.05;34.63;;;;;;;9.12;98.58;102777.91;5046726;28;20033;-44
2021/12/15 01:06:43;;;;;;;81.13;33.92;;;;;;;9.11;98.70;102781.56;5054195;28;20138;-44
2021/12/15 01:09:13;;;;;;;84.03;35.05;;;;;;;9.11;98.49;102781.56;5041382;28;20033;-44
2021/12/15 01:12:10;;;;;;;87.35;33.38;;;;;;;9.07;98.80;102772.06;5034350;28;20100;-44
2021/12/15 01:20:15;;;;;;;78.53;32.23;;;;;;;9.10;98.41;102777.19;5048617;28;20033;-44
2021/12/15 01:22:44;;;;;;;81.25;31.65;;;;;;;9.12;98.26;102777.91;5033728;28;20108;-45
2021/12/15 01:25:15;;;;;;;83.78;32.50;;;;;;;9.09;98.50;102778.16;5033738;28;20029;-44
2021/12/15 01:27:41;;;;;;;70.50;30.85;;;;;;;9.12;98.46;102777.91;5033807;28;20113;-44
2021/12/15 01:30:09;;;;;;;75.68;33.28;;;;;;;9.13;98.57;102780.47;5039142;28;20444;-44
2021/12/15 01:32:34;;;;;;;77.53;32.35;;;;;;;9.11;98.36;102776.19;5033827;28;20113;-44
2021/12/15 01:34:59;;;;;;;75.97;31.38;;;;;;;9.12;98.39;102776.09;5033792;28;20037;-44
2021/12/15 01:37:25;;;;;;;80.80;31.75;;;;;;;9.10;98.41;102774.50;5033686;28;20477;-44
2021/12/15 01:39:55;;;;;;;74.55;31.90;;;;;;;9.11;98.58;102777.06;5036398;28;20036;-46
2021/12/15 01:42:25;;;;;;;76.10;32.55;;;;;;;9.12;98.48;102785.97;5053355;28;20128;-44
2021/12/15 01:47:34;;;;;;;75.47;31.15;;;;;;;9.11;98.48;102792.31;5033630;28;20040;-44
2021/12/15 01:50:00;;;;;;;68.18;31.13;;;;;;;9.10;98.37;102796.00;5037303;28;20100;-44
2021/12/15 01:52:32;;;;;;;75.75;30.90;;;;;;;9.10;98.42;102791.47;5052388;28;20028;-44
2021/12/15 01:55:09;;;;;;;84.68;30.27;;;;;;;9.14;98.24;102794.78;5033233;28;20037;-45
2021/12/15 01:57:36;;;;;;;68.13;28.38;;;;;;;9.13;98.19;102799.25;5033336;28;20405;-44
2021/12/15 02:00:27;;;;;;;69.60;29.45;;;;;;;9.16;98.01;102800.84;5034134;28;20022;-44
2021/12/15 02:02:54;;;;;;;76.55;29.17;;;;;;;9.17;98.24;102803.44;5037217;28;20033;-43
2021/12/15 02:05:20;;;;;;;72.90;28.43;;;;;;;9.17;98.27;102802.56;5033376;28;20139;-44
2021/12/15 02:07:47;;;;;;;64.82;29.35;;;;;;;9.21;98.17;102804.03;5032931;28;20338;-43
2021/12/15 02:10:14;;;;;;;71.73;27.50;;;;;;;9.19;97.91;102806.00;5033015;28;20359;-44
2021/12/15 02:12:41;;;;;;;62.88;27.35;;;;;;;9.17;97.96;102803.44;5045270;28;20072;-44
2021/12/15 02:15:14;;;;;;;67.20;27.70;;;;;;;9.18;98.08;102798.91;5049529;28;20032;-44
2021/12/15 02:17:40;;;;;;;64.35;28.42;;;;;;;9.20;97.67;102802.31;5036120;28;20029;-43
2021/12/15 02:20:08;;;;;;;73.18;29.02;;;;;;;9.20;97.88;102813.06;5032583;28;20029;-45
2021/12/15 02:22:34;;;;;;;71.05;29.40;;;;;;;9.20;97.36;102813.06;5032837;28;20061;-44
2021/12/15 02:25:01;;;;;;;67.07;30.10;;;;;;;9.20;97.68;102819.28;5035274;28;20068;-46
2021/12/15 02:27:31;;;;;;;65.78;29.73;;;;;;;9.21;97.67;102812.06;5052752;28;20032;-44
2021/12/15 02:30:04;;;;;;;67.53;29.08;;;;;;;9.21;97.64;102814.75;5052976;28;20036;-44
2021/12/15 02:37:22;;;;;;;64.72;28.48;;;;;;;9.22;97.80;102805.75;5050735;28;20425;-45
2021/12/15 02:39:56;;;;;;;66.53;29.58;;;;;;;9.20;97.60;102803.16;5031568;28;20029;-45
2021/12/15 02:42:26;;;;;;;62.30;27.65;;;;;;;9.20;97.74;102805.84;5032297;28;20068;-44
2021/12/15 02:44:52;;;;;;;65.72;29.05;;;;;;;9.21;97.50;102804.03;5032565;28;20025;-44
2021/12/15 02:47:23;;;;;;;72.85;29.52;;;;;;;9.20;97.66;102805.00;5032519;28;20358;-43
2021/12/15 02:49:50;;;;;;;64.78;27.30;;;;;;;9.23;97.85;102804.75;5034556;28;20087;-44
2021/12/15 02:52:16;;;;;;;61.70;26.25;;;;;;;9.23;97.88;102802.91;5045517;28;20093;-43
2021/12/15 02:54:41;;;;;;;60.95;25.63;;;;;;;9.23;97.90;102807.44;5052413;28;20067;-44
2021/12/15 02:57:11;;;;;;;60.95;28.20;;;;;;;9.25;97.73;102812.69;5052641;28;20117;-44
2021/12/15 02:59:53;;;;;;;63.53;27.00;;;;;;;9.25;97.83;102810.88;5056044;28;20060;-43
2021/12/15 03:02:52;;;;;;;63.92;25.95;;;;;;;9.27;97.77;102816.09;5036763;28;20492;-45
2021/12/15 03:05:21;;;;;;;61.53;26.55;;;;;;;9.25;97.79;102810.88;5039456;28;20562;-45
2021/12/15 03:08:15;;;;;;;65.70;26.95;;;;;;;9.25;97.78;102805.50;5036542;28;20538;-45
2021/12/15 03:16:14;;;;;;;57.75;25.85;;;;;;;9.26;97.93;102815.25;5052547;28;20049;-44
2021/12/15 03:18:40;;;;;;;58.80;25.58;;;;;;;9.27;97.92;102819.66;5036240;28;20029;-44
2021/12/15 03:21:10;;;;;;;60.22;25.52;;;;;;;9.25;97.77;102821.63;5040688;28;20484;-45
2021/12/15 03:23:50;;;;;;;56.72;25.05;;;;;;;9.25;98.00;102816.25;5049623;28;20040;-44
2021/12/15 03:26:23;;;;;;;57.72;24.98;;;;;;;9.25;97.70;102821.63;5054871;28;20476;-44
2021/12/15 03:39:23;;;;;;;65.03;26.00;;;;;;;9.13;98.06;102817.22;5036193;28;20044;-44
2021/12/15 03:41:57;;;;;;;69.18;27.48;;;;;;;9.10;98.29;102822.84;5035642;28;20088;-44
2021/12/15 03:44:22;;;;;;;70.03;28.35;;;;;;;9.10;98.13;102820.16;5035995;28;20033;-44
2021/12/15 03:46:48;;;;;;;64.00;26.10;;;;;;;9.11;98.17;102819.16;5060901;28;20026;-44
2021/12/15 03:49:14;;;;;;;70.35;26.65;;;;;;;9.08;98.06;102822.09;5062879;28;20024;-45
2021/12/15 03:51:39;;;;;;;73.63;28.13;;;;;;;9.10;98.14;102822.84;5053809;28;20032;-44
2021/12/15 03:54:04;;;;;;;79.90;27.83;;;;;;;9.06;98.48;102821.38;5036904;28;20493;-43
2021/12/15 03:56:30;;;;;;;71.95;27.17;;;;;;;9.09;98.56;102829.22;5036134;28;20025;-44
2021/12/15 03:58:56;;;;;;;74.00;28.52;;;;;;;9.11;98.51;102824.53;5036383;28;20481;-46
2021/12/15 04:01:23;;;;;;;72.95;28.95;;;;;;;9.07;98.48;102823.09;5037778;28;20436;-44
2021/12/15 04:03:51;;;;;;;71.57;29.15;;;;;;;9.05;98.17;102823.22;5050251;28;20135;-45
2021/12/15 04:06:19;;;;;;;;;;;;;;;9.06;98.32;102834.81;5057373;28;20021;-44
2021/12/15 04:08:45;;;;;;;66.68;27.90;;;;;;;9.05;98.27;102830.41;5040839;28;20361;-44
2021/12/15 04:11:13;;;;;;;68.13;28.35;;;;;;;9.05;98.46;102836.63;5035276;28;20044;-44
2021/12/15 04:13:40;;;;;;;75.20;28.00;;;;;;;9.06;98.74;102827.63;5035235;28;20026;-44
2021/12/15 04:16:09;;;;;;;68.05;29.23;;;;;;;9.07;98.72;102839.22;5035091;28;20022;-44
2021/12/15 04:18:36;;;;;;;69.80;27.73;;;;;;;9.10;98.75;102837.13;5035056;28;20107;-43
2021/12/15 04:21:04;;;;;;;76.88;29.00;;;;;;;9.10;98.46;102839.81;5035125;28;20106;-44
2021/12/15 04:23:29;;;;;;;73.70;28.20;;;;;;;9.12;98.69;102837.00;5035979;28;20473;-44
2021/12/15 04:25:56;;;;;;;70.10;28.90;;;;;;;9.13;98.48;102841.41;5037286;28;20160;-44
2021/12/15 04:28:32;;;;;;;79.30;28.65;;;;;;;9.13;98.45;102836.03;5034940;28;20075;-45
2021/12/15 04:30:59;;;;;;;70.45;28.98;;;;;;;9.12;98.30;102834.34;5046277;28;20040;-43
2021/12/15 04:33:37;;;;;;;73.05;29.42;;;;;;;9.14;98.67;102835.06;5040026;28;20346;-44
2021/12/15 04:36:06;;;;;;;74.03;27.92;;;;;;;9.13;98.44;102825.28;5034745;28;20038;-43
2021/12/15 04:38:33;;;;;;;81.30;27.17;;;;;;;9.14;98.42;102832.38;5047222;28;20020;-44
2021/12/15 04:41:00;;;;;;;69.05;28.15;;;;;;;9.11;98.70;102829.91;5043018;28;20462;-42
2021/12/15 04:43:30;;;;;;;71.03;27.13;;;;;;;9.14;98.69;102835.06;5040349;28;20025;-45
2021/12/15 04:45:56;;;;;;;73.10;28.65;;;;;;;9.12;98.36;102834.34;5034504;28;20025;-45
2021/12/15 04:48:22;;;;;;;67.63;26.92;;;;;;;9.10;98.70;102842.50;5038223;28;20051;-44
2021/12/15 04:50:48;;;;;;;75.85;29.20;;;;;;;9.11;98.94;102843.34;5049464;28;20374;-45
2021/12/15 04:53:13;;;;;;;74.10;27.48;;;;;;;9.08;98.57;102838.22;5034976;28;20025;-45
2021/12/15 04:55:39;;;;;;;67.65;26.58;;;;;;;9.09;98.55;102837.28;5035912;28;20033;-45
2021/12/15 04:58:06;;;;;;;80.60;28.20;;;;;;;9.10;98.60;102842.50;5033279;28;20029;-44
2021/12/15 05:00:36;;;;;;;68.03;27.00;;;;;;;9.08;98.85;102847.13;5042149;28;20025;-43
2021/12/15 05:03:03;;;;;;;66.50;26.73;;;;;;;9.09;98.94;102848.84;5048816;28;20116;-43
2021/12/15 05:05:32;;;;;;;71.00;27.13;;;;;;;9.10;98.84;102853.25;5031686;28;20033;-43
2021/12/15 05:07:58;;;;;;;68.28;25.85;;;;;;;9.11;98.87;102846.03;5044070;28;20041;-42
2021/12/15 05:10:25;;;;;;;67.30;24.85;;;;;;;9.12;98.87;102845.06;5032384;28;20143;-42
2021/12/15 05:12:51;;;;;;;75.10;26.97;;;;;;;9.11;98.75;102846.91;5047115;28;20037;-42
2021/12/15 05:15:16;;;;;;;80.90;26.90;;;;;;;9.11;98.65;102846.03;5047922;28;20034;-44
2021/12/15 05:17:42;;;;;;;71.10;26.08;;;;;;;9.10;98.70;102842.50;5039208;28;20060;-45
2021/12/15 05:20:09;;;;;;;68.47;25.58;;;;;;;9.12;98.60;102842.38;5048465;28;20067;-43
2021/12/15 05:22:36;;;;;;;75.38;25.63;;;;;;;9.13;98.90;102846.78;5032954;28;20471;-43
2021/12/15 05:25:03;;;;;;;66.07;24.85;;;;;;;9.14;98.98;102846.66;5043001;28;20024;-44
2021/12/15 05:27:28;;;;;;;59.60;23.75;;;;;;;9.17;98.87;102849.09;5043426;28;20107;-44
2021/12/15 05:29:54;;;;;;;70.90;26.30;;;;;;;9.17;98.61;102840.19;5038055;28;20449;-44
2021/12/15 05:32:22;;;;;;;62.50;24.90;;;;;;;9.19;98.78;102854.34;5039722;28;20553;-43
2021/12/15 05:34:50;;;;;;;71.10;28.13;;;;;;;9.18;98.95;102848.09;5039689;28;20029;-44
2021/12/15 05:37:16;;;;;;;82.55;26.17;;;;;;;9.18;98.61;102856.16;5047009;28;20017;-43
2021/12/15 05:39:43;;;;;;;82.45;29.25;;;;;;;9.21;98.95;102853.22;5032304;28;20022;-44
2021/12/15 05:42:09;;;;;;;86.13;29.45;;;;;;;9.23;98.82;102858.50;5041545;28;20132;-44
2021/12/15 05:44:35;;;;;;;84.28;30.52;;;;;;;9.25;98.81;102853.84;5037544;28;20537;-46
2021/12/15 05:47:02;;;;;;;80.72;31.63;;;;;;;9.27;98.75;102856.41;5038199;28;20104;-44
2021/12/15 05:49:28;;;;;;;93.75;33.47;;;;;;;9.27;99.11;102853.72;5038492;28;20100;-44
2021/12/15 05:51:54;;;;;;;86.35;32.60;;;;;;;9.29;98.75;102855.28;5039032;28;20461;-45
2021/12/15 05:54:20;;;;;;;90.88;34.30;;;;;;;9.29;99.13;102849.91;5039154;28;20070;-45
2021/12/15 05:56:45;;;;;;;92.05;31.98;;;;;;;9.30;98.90;102857.03;5037998;28;20037;-44
2021/12/15 05:59:11;;;;;;;94.00;33.45;;;;;;;9.30;99.02;102859.72;5038837;28;21435;-44
2021/12/15 06:01:38;;;;;;;93.35;32.67;;;;;;;9.31;98.87;102858.72;5038510;28;20478;-44
2021/12/15 06:04:06;;;;;;;95.05;31.65;;;;;;;9.33;98.86;102859.47;5038311;28;20071;-45
2021/12/15 06:06:32;;;;;;;94.32;32.17;;;;;;;9.33;98.96;102859.47;5049314;28;20444;-44
2021/12/15 06:08:57;;;;;;;97.13;34.00;;;;;;;9.33;98.70;102856.78;5043099;28;20040;-44
2021/12/15 06:11:23;;;;;;;99.65;33.17;;;;;;;9.34;98.82;102858.47;5038562;28;20392;-44
2021/12/15 06:13:50;;;;;;;93.47;33.33;;;;;;;9.33;98.75;102856.78;5044563;28;20035;-44
2021/12/15 06:16:21;;;;;;;92.20;32.28;;;;;;;9.34;98.88;102861.16;5032650;28;20037;-45
2021/12/15 06:18:48;;;;;;;88.75;32.42;;;;;;;9.36;98.71;102866.41;5034696;28;20059;-43
2021/12/15 06:21:15;;;;;;;87.28;32.08;;;;;;;9.38;98.65;102864.47;5047673;28;20033;-44
2021/12/15 06:23:40;;;;;;;86.00;31.77;;;;;;;9.37;98.68;102863.63;5048295;28;20028;-45
2021/12/15 06:26:06;;;;;;;95.05;33.35;;;;;;;9.40;98.51;102868.75;5035053;28;20105;-45
2021/12/15 06:28:33;;;;;;;86.00;30.75;;;;;;;9.40;98.67;102873.22;5032998;28;20060;-45
2021/12/15 06:30:59;;;;;;;88.45;30.52;;;;;;;9.42;98.69;102869.44;5041685;28;20050;-44
2021/12/15 06:33:26;;;;;;;100.35;33.25;;;;;;;9.41;98.55;102880.34;5042693;28;20044;-44
2021/12/15 06:35:53;;;;;;;84.88;29.85;;;;;;;9.41;98.44;102875.81;5037539;28;20092;-43
2021/12/15 06:38:31;;;;;;;83.05;32.85;;;;;;;9.39;98.54;102877.75;5033250;28;20033;-44
2021/12/15 06:40:57;;;;;;;;;;;;;;;9.36;98.49;102878.00;5042840;28;20076;-44
2021/12/15 06:43:25;;;;;;;84.03;32.28;;;;;;;9.39;98.63;102874.22;5052036;28;19974;-43
2021/12/15 06:59:21;;;;;;;78.78;30.98;;;;;;;9.34;98.46;102898.78;5045441;28;20115;-43
2021/12/15 07:01:49;;;;;;;83.28;30.02;;;;;;;9.36;98.68;102902.19;5038931;28;20025;-44
2021/12/15 07:04:15;;;;;;;;;;;;;;;9.36;98.42;102915.63;5038368;28;20079;-44
2021/12/15 07:06:40;;;;;;;81.60;29.45;;;;;;;9.36;98.47;102915.63;5034722;28;19913;-44
2021/12/15 07:09:06;;;;;;;79.22;31.80;;;;;;;9.35;98.55;102910.41;5051240;28;20036;-43
2021/12/15 07:11:31;;;;;;;75.55;29.85;;;;;;;9.34;98.55;102906.84;5051554;28;20032;-43
2021/12/15 07:13:56;;;;;;;88.85;29.77;;;;;;;9.35;98.80;102907.72;5042292;28;20029;-44
2021/12/15 07:16:23;;;;;;;83.07;30.20;;;;;;;9.34;98.88;102912.22;5041581;28;20112;-43
2021/12/15 07:18:53;;;;;;;81.90;29.80;;;;;;;9.36;98.61;102912.09;5041912;28;20029;-43
2021/12/15 07:21:22;;;;;;;68.38;26.67;;;;;;;9.35;98.75;102908.56;5045831;28;20191;-43
2021/12/15 07:23:50;;;;;;;70.43;27.67;;;;;;;9.37;98.80;102900.38;5040388;28;20087;-43
2021/12/15 07:26:15;;;;;;;65.47;25.83;;;;;;;9.37;98.99;102906.63;5039821;28;20041;-43
2021/12/15 07:28:40;;;;;;;59.90;23.70;;;;;;;9.40;98.96;102917.13;5052161;28;20033;-43
2021/12/15 07:31:07;;;;;;;65.18;23.02;;;;;;;9.40;99.10;102917.13;5038255;28;20038;-44
2021/12/15 07:33:33;;;;;;;59.45;23.25;;;;;;;9.40;98.85;102918.91;5048884;28;20033;-44
2021/12/15 07:35:59;;;;;;;58.15;22.63;;;;;;;9.40;99.10;102919.81;5041463;28;20354;-44
2021/12/15 07:38:25;;;;;;;59.17;23.40;;;;;;;9.40;99.15;102911.75;5032020;28;20083;-43
2021/12/15 07:40:50;;;;;;;62.55;22.67;;;;;;;9.42;99.01;102914.28;5047487;28;20102;-44
2021/12/15 07:43:25;;;;;;;60.03;21.73;;;;;;;9.41;98.91;102918.81;5032908;28;20036;-44
2021/12/15 07:46:02;;;;;;;58.30;22.67;;;;;;;9.42;98.70;102922.34;5038048;28;20045;-44
2021/12/15 07:48:34;;;;;;;60.72;24.10;;;;;;;9.44;98.93;102918.56;5035022;28;20029;-43
2021/12/15 07:51:01;;;;;;;60.35;22.48;;;;;;;9.44;98.99;102918.56;5052912;28;20055;-43
2021/12/15 07:53:26;;;;;;;63.75;23.55;;;;;;;9.45;98.84;102914.03;5054080;28;20079;-44
2021/12/15 07:55:52;;;;;;;59.20;22.50;;;;;;;9.43;98.76;102924.06;5052919;28;20024;-44
2021/12/15 07:58:18;;;;;;;56.70;21.65;;;;;;;9.44;98.44;102923.94;5053216;28;20029;-45
2021/12/15 08:00:48;;;;;;;64.22;22.70;;;;;;;9.45;98.57;102928.34;5047281;28;20037;-45
2021/12/15 08:03:16;;;;;;;61.92;22.35;;;;;;;9.44;98.56;102929.31;5045568;28;20029;-44
2021/12/15 08:05:43;;;;;;;55.38;21.30;;;;;;;9.43;98.53;102927.63;5051714;28;20402;-46
2021/12/15 08:08:09;;;;;;;65.03;22.43;;;;;;;9.42;98.53;102925.03;5037124;28;20021;-45
2021/12/15 08:10:35;;;;;;;64.30;22.25;;;;;;;9.42;98.45;102927.72;5036962;28;20086;-45
2021/12/15 08:13:01;;;;;;;60.22;21.65;;;;;;;9.42;98.51;102928.56;5053903;28;20082;-46
2021/12/15 08:15:27;;;;;;;52.15;20.02;;;;;;;9.43;98.36;102926.75;5049299;28;20025;-46
2021/12/15 08:17:52;;;;;;;63.83;20.80;;;;;;;9.43;98.39;102937.50;5042555;28;20091;-45
2021/12/15 08:20:23;;;;;;;58.47;20.10;;;;;;;9.40;98.08;102935.94;5052781;28;20472;-45
2021/12/15 08:22:49;;;;;;;49.05;18.33;;;;;;;9.41;98.08;102937.63;5052844;28;20029;-45
2021/12/15 08:25:15;;;;;;;57.83;18.45;;;;;;;9.41;98.25;102945.69;5042649;28;20101;-44
2021/12/15 08:27:41;;;;;;;54.72;19.20;;;;;;;9.42;98.19;102943.84;5041863;28;20032;-45
2021/12/15 08:30:11;;;;;;;53.70;19.60;;;;;;;9.42;98.13;102950.06;5045322;28;20026;-44
2021/12/15 08:32:38;;;;;;;47.08;18.13;;;;;;;9.41;97.89;102945.69;5053975;28;20369;-44
2021/12/15 08:35:05;;;;;;;54.55;18.65;;;;;;;9.42;97.77;102946.53;5053359;28;20107;-44
2021/12/15 08:37:30;;;;;;;46.03;17.65;;;;;;;9.42;97.66;102944.69;5048483;28;20043;-44
2021/12/15 08:39:55;;;;;;;53.03;17.98;;;;;;;9.40;97.62;102944.00;5040560;28;20033;-44
2021/12/15 08:42:21;;;;;;;48.13;17.48;;;;;;;9.40;97.45;102946.69;5037920;28;20515;-45
2021/12/15 08:44:46;;;;;;;48.30;16.63;;;;;;;9.40;96.97;102952.06;5052646;28;20393;-44
2021/12/15 08:47:12;;;;;;;49.40;16.17;;;;;;;9.41;96.53;102942.16;5046124;28;20206;-44
2021/12/15 08:49:37;;;;;;;45.58;16.30;;;;;;;9.45;96.30;102955.22;5049087;28;20037;-45
2021/12/15 08:52:04;;;;;;;44.72;16.55;;;;;;;9.47;96.24;102959.63;5037199;28;20142;-44
2021/12/15 08:54:30;;;;;;;44.33;14.80;;;;;;;9.48;95.83;102958.63;5038685;28;20032;-45
2021/12/15 08:56:55;;;;;;;51.40;14.70;;;;;;;9.48;95.68;102964.00;5038973;28;20469;-45
2021/12/15 08:59:21;;;;;;;45.50;15.35;;;;;;;9.48;95.53;102966.69;5041509;28;20167;-45
2021/12/15 09:01:51;;;;;;;41.78;15.20;;;;;;;9.48;95.55;102966.69;5051215;28;20110;-45
2021/12/15 09:04:16;;;;;;;50.65;14.85;;;;;;;9.45;94.93;102962.41;5052587;28;20041;-46
2021/12/15 09:06:42;;;;;;;42.65;13.40;;;;;;;9.48;94.43;102964.00;5048666;28;20546;-44
2021/12/15 09:09:10;;;;;;;33.72;12.10;;;;;;;9.50;94.25;102970.97;5034707;28;20033;-46
2021/12/15 09:11:36;;;;;;;35.20;12.32;;;;;;;9.54;94.05;102968.91;5048481;28;20028;-44
2021/12/15 09:14:03;;;;;;;33.75;10.80;;;;;;;9.54;93.22;102977.81;5052816;28;20112;-45
2021/12/15 09:16:30;;;;;;;32.58;10.43;;;;;;;9.56;92.63;102985.78;5036967;28;20032;-45
2021/12/15 09:18:58;;;;;;;36.20;11.05;;;;;;;9.56;92.98;102970.50;5051716;28;20025;-43
2021/12/15 09:21:25;;;;;;;35.97;12.10;;;;;;;9.56;92.78;102975.03;5031738;28;20029;-45
2021/12/15 09:23:51;;;;;;;35.20;11.57;;;;;;;9.57;92.90;102979.41;5040577;28;20029;-46
2021/12/15 09:26:17;;;;;;;32.33;11.43;;;;;;;9.57;92.88;102979.41;5043586;28;20441;-44
2021/12/15 09:28:42;;;;;;;34.58;11.30;;;;;;;9.57;92.84;102987.47;5046247;28;20049;-43
2021/12/15 09:31:08;;;;;;;32.60;11.70;;;;;;;9.58;93.05;102981.09;5048109;28;20392;-42
2021/12/15 09:33:34;;;;;;;37.20;12.52;;;;;;;9.57;93.18;102992.84;5038791;28;20045;-46
2021/12/15 09:36:01;;;;;;;44.00;12.63;;;;;;;9.59;93.41;102997.13;5052251;28;20109;-45
2021/12/15 09:38:27;;;;;;;32.53;13.10;;;;;;;9.58;93.61;103000.78;5051579;28;20060;-44
2021/12/15 09:40:56;;;;;;;39.40;13.32;;;;;;;9.59;93.26;102997.13;5050561;28;20077;-44
2021/12/15 09:43:26;;;;;;;46.58;14.57;;;;;;;9.57;93.31;103008.97;5034812;28;20029;-45
2021/12/15 09:45:55;;;;;;;40.13;14.55;;;;;;;9.58;93.83;103013.38;5048319;28;20033;-44
2021/12/15 10:04:42;;;;;;;49.28;12.25;;;;;;;9.66;93.72;103035.13;5042849;28;20056;-45
2021/12/15 10:18:56;;;;;;;34.05;10.95;;;;;;;9.77;93.07;103032.44;5052295;28;20059;-45
2021/12/15 10:21:26;;;;;;;23.88;10.90;;;;;;;9.84;92.36;103022.88;5046939;28;20063;-46
2021/12/15 10:23:53;;;;;;;31.20;9.45;;;;;;;9.91;91.53;103017.03;5047547;28;20029;-46
2021/12/15 10:26:19;;;;;;;27.52;9.20;;;;;;;9.94;90.60;103019.47;5039208;28;20476;-46
2021/12/15 10:28:52;;;;;;;32.60;8.52;;;;;;;9.97;90.09;103030.81;5052193;28;20039;-46
2021/12/15 10:31:19;;;;;;;39.47;9.38;;;;;;;10.03;90.27;103024.09;5038891;28;20038;-45
2021/12/15 10:33:49;;;;;;;29.23;9.13;;;;;;;10.08;89.73;103021.88;5052381;28;20059;-45
2021/12/15 10:36:22;;;;;;;22.92;7.65;;;;;;;10.06;88.22;103032.78;5051362;28;20280;-46
2021/12/15 10:38:55;;;;;;;25.58;6.85;;;;;;;10.08;88.42;103030.81;5015198;28;20487;-45
2021/12/15 10:41:24;;;;;;;23.75;8.05;;;;;;;10.09;88.12;103031.69;5033087;28;20373;-44
2021/12/15 10:43:51;;;;;;;23.65;6.38;;;;;;;10.08;87.35;103038.00;5036596;28;20516;-44
2021/12/15 10:46:29;;;;;;;24.30;6.32;;;;;;;10.03;87.26;103037.53;5041640;28;20064;-44
2021/12/15 10:49:01;;;;;;;20.33;6.18;;;;;;;9.99;87.13;103036.94;5038426;28;20392;-45
2021/12/15 10:51:38;;;;;;;21.83;5.55;;;;;;;10.00;87.39;103033.25;5031862;28;20030;-45
2021/12/15 10:54:09;;;;;;;15.90;4.85;;;;;;;10.02;86.98;103035.84;5030717;28;20064;-45
2021/12/15 10:56:38;;;;;;;20.25;5.50;;;;;;;10.06;87.78;103034.63;5049525;28;20037;-44
2021/12/15 10:59:08;;;;;;;17.15;5.07;;;;;;;10.04;86.39;103028.50;5037523;28;20038;-44
2021/12/15 11:01:39;;;;;;;21.35;5.30;;;;;;;10.07;85.87;103031.78;5046878;28;20043;-44
2021/12/15 11:04:43;;;;;;;20.33;4.95;;;;;;;10.12;85.55;103036.81;5045527;28;20033;-47
2021/12/15 11:07:09;;;;;;;27.40;5.05;;;;;;;10.19;85.37;103031.75;5038586;28;20473;-45
2021/12/15 11:09:42;;;;;;;19.98;4.47;;;;;;;10.23;84.79;103034.06;5034642;28;20075;-44
2021/12/15 11:12:28;;;;;;;21.38;4.68;;;;;;;10.20;83.25;103028.09;5052125;28;20066;-46
2021/12/15 11:14:57;;;;;;;17.55;4.57;;;;;;;10.24;84.21;103019.66;5052018;28;20025;-46
2021/12/15 11:17:26;;;;;;;14.82;3.50;;;;;;;10.27;83.61;103024.81;5051918;28;20033;-45
2021/12/15 11:20:12;;;;;;;15.35;3.80;;;;;;;10.27;82.36;103019.44;5037600;28;20108;-45
2021/12/15 11:23:00;;;;;;;20.83;4.57;;;;;;;10.28;83.17;103026.50;5053678;28;20032;-46
2021/12/15 11:25:46;;;;;;;27.80;4.47;;;;;;;10.28;83.01;103026.50;5054179;28;20496;-43
2021/12/15 11:28:33;;;;;;;24.13;5.70;;;;;;;10.30;83.07;103035.31;5053349;28;20021;-44
2021/12/15 11:31:13;;;;;;;23.92;5.38;;;;;;;10.30;83.38;103035.31;5054260;28;20045;-46
2021/12/15 11:33:49;;;;;;;21.27;4.60;;;;;;;10.29;83.46;103032.75;5053892;28;20021;-43
2021/12/15 11:36:31;;;;;;;19.85;4.45;;;;;;;10.24;83.51;103030.44;5043086;28;20128;-48
2021/12/15 11:39:01;;;;;;;21.10;5.00;;;;;;;10.22;83.15;103036.91;5041260;28;20388;-45
2021/12/15 11:41:36;;;;;;;18.65;3.95;;;;;;;10.16;82.88;103032.00;5035745;28;20041;-43
2021/12/15 11:44:06;;;;;;;22.75;4.60;;;;;;;10.19;83.28;103026.38;5049939;28;20103;-44
2021/12/15 11:46:37;;;;;;;16.38;4.90;;;;;;;10.19;82.63;103027.25;5046154;28;20040;-44
2021/12/15 11:49:07;;;;;;;14.85;4.38;;;;;;;10.21;83.04;103030.66;5048225;28;20029;-45
2021/12/15 11:51:46;;;;;;;30.58;4.68;;;;;;;10.20;83.05;103034.34;5035373;28;20061;-45
2021/12/15 11:54:14;;;;;;;20.60;4.75;;;;;;;10.23;83.34;103022.47;5035192;28;20033;-45
2021/12/15 11:56:40;;;;;;;16.50;4.32;;;;;;;10.25;82.97;103026.75;5034688;28;20329;-44
2021/12/15 11:59:23;;;;;;;20.45;5.03;;;;;;;10.27;83.41;103019.44;5036129;28;20030;-45
2021/12/15 12:01:53;;;;;;;16.52;4.68;;;;;;;10.30;83.20;103016.47;5053305;28;20029;-45
2021/12/15 12:04:23;;;;;;;23.90;6.22;;;;;;;10.23;83.16;103020.63;5039899;28;20109;-45
2021/12/15 12:06:51;;;;;;;28.20;7.05;;;;;;;10.29;83.69;103021.97;5033170;28;20030;-44
2021/12/15 12:09:19;;;;;;;20.38;5.78;;;;;;;10.25;84.10;103021.34;5051193;28;20112;-45
2021/12/15 12:11:50;;;;;;;22.92;6.60;;;;;;;10.29;84.30;103016.59;5040466;28;20044;-44
2021/12/15 12:14:37;;;;;;;27.60;7.97;;;;;;;10.26;83.97;103023.06;5049989;28;20529;-46
2021/12/15 12:17:01;;;;;;;19.75;6.43;;;;;;;10.25;84.28;103015.13;5040675;28;20056;-46
2021/12/15 12:19:26;;;;;;;17.77;6.55;;;;;;;10.21;84.66;103001.03;5047607;28;20423;-45
2021/12/15 12:21:51;;;;;;;26.50;7.10;;;;;;;10.22;84.92;103010.84;5047958;28;20032;-45
2021/12/15 12:24:18;;;;;;;17.30;6.78;;;;;;;10.25;85.06;103010.59;5037307;28;20109;-45
2021/12/15 12:26:45;;;;;;;21.77;6.35;;;;;;;10.26;84.57;103001.53;5030012;28;20048;-45
2021/12/15 12:29:10;;;;;;;21.52;6.55;;;;;;;10.28;84.94;102998.75;5031225;28;20394;-44
2021/12/15 12:31:36;;;;;;;27.73;7.50;;;;;;;10.32;84.84;103011.84;5030756;28;20159;-45
2021/12/15 12:34:01;;;;;;;25.50;8.50;;;;;;;10.35;84.73;103010.72;5029791;28;21063;-45
2021/12/15 12:36:29;;;;;;;26.92;8.30;;;;;;;10.37;85.15;103005.19;5029899;28;20072;-45